createdAt,value
2023-03-29T00:01:36.018Z,3.32
2023-03-29T00:22:26.766Z,2.94
2023-03-29T00:24:37.402Z,2.88
2023-03-29T00:26:32.930Z,2.85
2023-03-29T00:28:28.320Z,2.83
2023-03-29T00:30:23.724Z,2.81
2023-03-29T00:32:18.845Z,2.83
2023-03-29T00:34:14.394Z,2.77
2023-03-29T00:36:11.362Z,2.78
2023-03-29T00:38:09.567Z,2.76
2023-03-29T00:40:07.885Z,2.77
2023-03-29T00:42:03.331Z,2.75
2023-03-29T00:44:01.224Z,2.74
2023-03-29T00:45:56.622Z,2.70
2023-03-29T00:47:55.750Z,2.66
2023-03-29T00:49:52.302Z,2.65
2023-03-29T00:51:48.439Z,2.65
2023-03-29T00:53:50.260Z,2.63
2023-03-29T00:55:50.373Z,2.59
2023-03-29T00:57:47.386Z,2.60
2023-03-29T00:59:46.862Z,2.50
2023-03-29T01:01:46.830Z,2.43
2023-03-29T01:03:48.227Z,2.42
2023-03-29T01:05:48.978Z,2.39
2023-03-29T01:07:50.503Z,2.37
2023-03-29T01:09:53.420Z,2.35
2023-03-29T01:11:54.291Z,2.33
2023-03-29T01:13:55.388Z,2.32
2023-03-29T01:15:51.479Z,2.30
2023-03-29T01:17:50.586Z,2.25
2023-03-29T01:19:59.054Z,2.24
2023-03-29T01:22:09.792Z,2.24
2023-03-29T01:24:39.323Z,2.29
2023-03-29T01:26:51.970Z,2.29
2023-03-29T01:28:59.460Z,2.27
2023-03-29T01:31:07.951Z,2.31
2023-03-29T01:33:11.639Z,2.30
2023-03-29T01:35:15.557Z,2.37
2023-03-29T01:37:30.789Z,2.43
2023-03-29T01:39:35.128Z,2.49
2023-03-29T01:55:04.944Z,2.38
2023-03-29T01:58:50.091Z,2.30
2023-03-29T02:05:36.376Z,2.35
2023-03-29T02:09:26.338Z,2.31
2023-03-29T02:12:51.642Z,2.22
2023-03-29T02:16:24.251Z,2.22
2023-03-29T02:47:59.124Z,1.93
2023-03-29T02:54:40.990Z,1.77
2023-03-29T03:01:35.305Z,1.75
2023-03-29T03:08:28.564Z,1.66
2023-03-29T03:22:37.998Z,1.61
2023-03-29T03:26:05.937Z,1.57
2023-03-29T03:49:57.972Z,1.42
2023-03-29T04:17:20.028Z,1.13
2023-03-29T04:26:48.544Z,1.05
2023-03-29T04:36:19.721Z,0.97
2023-03-29T04:49:03.478Z,1.01
2023-03-29T04:51:49.974Z,0.97
2023-03-29T04:54:59.752Z,0.98
2023-03-29T04:58:08.248Z,0.93
2023-03-29T05:04:42.837Z,0.95
2023-03-29T05:07:30.143Z,0.94
2023-03-29T05:09:25.842Z,0.91
2023-03-29T05:11:21.394Z,0.91
2023-03-29T05:13:16.878Z,0.89
2023-03-29T05:15:13.613Z,0.92
2023-03-29T05:17:09.018Z,0.97
2023-03-29T05:19:04.756Z,0.98
2023-03-29T05:21:00.902Z,0.96
2023-03-29T05:22:59.877Z,0.96
2023-03-29T05:24:55.361Z,0.99
2023-03-29T05:26:51.958Z,0.97
2023-03-29T05:28:47.583Z,1.00
2023-03-29T05:30:43.639Z,1.04
2023-03-29T05:32:39.777Z,1.06
2023-03-29T05:34:35.403Z,1.04
2023-03-29T05:36:31.550Z,1.07
2023-03-29T05:38:29.859Z,1.08
2023-03-29T05:40:26.345Z,1.09
2023-03-29T05:42:22.686Z,1.12
2023-03-29T05:44:20.255Z,1.12
2023-03-29T05:46:17.693Z,1.14
2023-03-29T05:48:15.784Z,1.14
2023-03-29T05:50:14.373Z,1.15
2023-03-29T05:52:12.603Z,1.20
2023-03-29T05:54:12.946Z,1.22
2023-03-29T05:56:17.015Z,1.21
2023-03-29T05:58:14.409Z,1.23
2023-03-29T06:00:22.548Z,1.24
2023-03-29T06:02:20.592Z,1.25
2023-03-29T06:04:18.319Z,1.24
2023-03-29T06:06:18.759Z,1.26
2023-03-29T06:08:20.699Z,1.31
2023-03-29T06:10:24.720Z,1.32
2023-03-29T06:12:24.942Z,1.35
2023-03-29T06:14:23.926Z,1.36
2023-03-29T06:16:20.332Z,1.40
2023-03-29T06:18:16.893Z,1.39
2023-03-29T06:20:15.065Z,1.37
2023-03-29T06:22:15.673Z,1.38
2023-03-29T06:24:15.047Z,1.37
2023-03-29T06:26:22.201Z,1.37
2023-03-29T06:28:20.016Z,1.38
2023-03-29T06:30:18.125Z,1.41
2023-03-29T06:32:17.288Z,1.42
2023-03-29T06:34:14.331Z,1.45
2023-03-29T06:36:14.812Z,1.50
2023-03-29T06:38:11.846Z,1.50
2023-03-29T06:40:11.191Z,1.52
2023-03-29T06:42:19.955Z,1.56
2023-03-29T06:44:17.919Z,1.58
2023-03-29T06:46:15.139Z,1.60
2023-03-29T06:59:08.171Z,1.74
2023-03-29T07:31:02.104Z,2.35
2023-03-29T07:51:39.092Z,2.78
2023-03-29T07:54:48.704Z,2.88
2023-03-29T08:09:33.413Z,3.40
2023-03-29T08:16:44.359Z,3.58
2023-03-29T08:23:03.409Z,3.81
2023-03-29T08:34:33.809Z,4.05
2023-03-29T08:51:26.400Z,4.69
2023-03-29T08:54:20.027Z,4.87
2023-03-29T08:59:37.522Z,5.14
2023-03-29T09:01:36.876Z,5.23
2023-03-29T09:03:37.698Z,5.23
2023-03-29T09:05:38.005Z,5.30
2023-03-29T09:07:33.166Z,5.37
2023-03-29T09:09:34.605Z,5.41
2023-03-29T09:11:57.983Z,5.41
2023-03-29T09:14:02.618Z,5.46
2023-03-29T09:16:09.698Z,5.58
2023-03-29T09:18:17.196Z,5.71
2023-03-29T09:20:28.358Z,5.84
2023-03-29T09:22:31.567Z,5.98
2023-03-29T09:24:47.948Z,5.97
2023-03-29T09:26:53.531Z,6.14
2023-03-29T09:28:59.996Z,6.23
2023-03-29T09:31:07.107Z,6.23
2023-03-29T09:33:08.761Z,6.14
2023-03-29T09:35:18.939Z,6.21
2023-03-29T09:37:22.066Z,6.47
2023-03-29T09:39:21.173Z,6.53
2023-03-29T09:41:24.736Z,6.46
2023-03-29T09:43:28.241Z,6.57
2023-03-29T09:45:23.841Z,6.75
2023-03-29T09:47:27.270Z,6.98
2023-03-29T09:49:26.420Z,7.04
2023-03-29T09:51:28.459Z,7.00
2023-03-29T09:53:27.373Z,7.26
2023-03-29T09:55:28.144Z,7.40
2023-03-29T09:57:23.838Z,7.61
2023-03-29T09:59:20.450Z,7.67
2023-03-29T10:11:12.212Z,7.98
2023-03-29T10:13:49.873Z,7.80
2023-03-29T10:16:31.225Z,7.61
2023-03-29T10:22:21.216Z,7.80
2023-03-29T10:39:17.274Z,8.31
2023-03-29T10:41:15.978Z,8.48
2023-03-29T10:43:17.391Z,8.60
2023-03-29T10:45:23.401Z,8.57
2023-03-29T10:47:20.968Z,8.70
2023-03-29T10:49:22.528Z,8.67
2023-03-29T10:51:22.285Z,8.65
2023-03-29T10:53:28.929Z,8.74
2023-03-29T10:55:27.969Z,8.77
2023-03-29T10:57:32.484Z,8.67
2023-03-29T10:59:31.928Z,8.69
2023-03-29T11:01:35.618Z,8.76
2023-03-29T11:03:53.817Z,8.98
2023-03-29T11:05:57.400Z,8.79
2023-03-29T11:08:16.749Z,8.52
2023-03-29T11:10:31.620Z,8.68
2023-03-29T11:12:34.676Z,8.63
2023-03-29T11:14:44.115Z,8.62
2023-03-29T11:16:48.650Z,8.55
2023-03-29T11:19:10.174Z,8.50
2023-03-29T11:21:16.492Z,8.61
2023-03-29T11:23:29.979Z,8.66
2023-03-29T11:25:37.369Z,8.77
2023-03-29T11:27:41.157Z,8.68
2023-03-29T11:29:43.589Z,8.79
2023-03-29T11:31:47.784Z,8.85
2023-03-29T11:33:56.411Z,8.61
2023-03-29T11:36:00.938Z,8.59
2023-03-29T11:38:03.480Z,8.60
2023-03-29T11:40:18.930Z,8.62
2023-03-29T11:42:20.468Z,8.55
2023-03-29T11:44:22.386Z,8.86
2023-03-29T11:46:23.301Z,8.66
2023-03-29T11:48:24.152Z,8.77
2023-03-29T11:50:25.783Z,8.88
2023-03-29T11:52:26.436Z,8.98
2023-03-29T11:54:28.622Z,9.16
2023-03-29T11:56:34.675Z,9.16
2023-03-29T11:58:38.784Z,8.93
2023-03-29T12:00:38.782Z,9.13
2023-03-29T12:02:40.004Z,9.03
2023-03-29T12:04:41.662Z,9.20
2023-03-29T12:06:43.653Z,9.08
2023-03-29T12:08:48.442Z,9.11
2023-03-29T12:10:52.766Z,9.30
2023-03-29T12:13:10.705Z,9.64
2023-03-29T12:15:23.045Z,9.56
2023-03-29T12:17:23.593Z,9.39
2023-03-29T12:19:22.674Z,9.58
2023-03-29T12:21:22.937Z,9.86
2023-03-29T12:23:21.487Z,9.55
2023-03-29T12:25:23.139Z,9.33
2023-03-29T12:27:27.545Z,9.26
2023-03-29T12:29:40.351Z,9.32
2023-03-29T12:31:45.863Z,9.56
2023-03-29T12:34:10.092Z,9.53
2023-03-29T12:36:18.461Z,9.38
2023-03-29T12:38:22.913Z,9.10
2023-03-29T12:40:22.461Z,9.18
2023-03-29T12:42:21.633Z,9.34
2023-03-29T12:44:19.720Z,9.44
2023-03-29T12:46:22.397Z,9.57
2023-03-29T12:48:22.839Z,9.43
2023-03-29T12:50:26.527Z,9.35
2023-03-29T12:52:29.869Z,9.29
2023-03-29T12:54:28.323Z,9.32
2023-03-29T12:56:25.281Z,9.26
2023-03-29T12:58:39.793Z,9.07
2023-03-29T13:00:37.503Z,9.26
2023-03-29T13:02:41.724Z,9.31
2023-03-29T13:05:10.411Z,9.15
2023-03-29T13:07:33.913Z,9.21
2023-03-29T13:09:51.754Z,9.45
2023-03-29T13:11:55.825Z,9.50
2023-03-29T13:13:53.545Z,9.35
2023-03-29T13:15:49.514Z,9.45
2023-03-29T13:17:59.820Z,9.38
2023-03-29T13:20:13.940Z,9.39
2023-03-29T13:22:23.922Z,9.43
2023-03-29T13:24:45.998Z,9.33
2023-03-29T13:26:55.866Z,9.34
2023-03-29T13:29:18.436Z,9.47
2023-03-29T13:31:30.058Z,9.51
2023-03-29T13:33:44.805Z,9.39
2023-03-29T13:35:52.961Z,9.32
2023-03-29T13:37:58.693Z,9.33
2023-03-29T13:39:55.776Z,9.38
2023-03-29T13:41:52.828Z,9.32
2023-03-29T13:43:56.652Z,9.37
2023-03-29T13:46:07.476Z,9.18
2023-03-29T13:48:07.904Z,9.38
2023-03-29T13:50:10.348Z,9.27
2023-03-29T13:52:16.799Z,9.22
2023-03-29T13:54:27.849Z,9.17
2023-03-29T13:56:32.059Z,9.14
2023-03-29T13:58:37.776Z,9.33
2023-03-29T14:00:39.135Z,9.34
2023-03-29T14:02:41.211Z,9.24
2023-03-29T14:04:47.105Z,9.19
2023-03-29T14:06:53.242Z,9.10
2023-03-29T14:08:51.070Z,9.19
2023-03-29T14:10:48.739Z,9.15
2023-03-29T14:12:46.218Z,9.28
2023-03-29T14:14:58.353Z,9.25
2023-03-29T14:16:59.543Z,9.25
2023-03-29T14:18:56.413Z,9.15
2023-03-29T14:20:56.360Z,9.26
2023-03-29T14:22:56.201Z,9.19
2023-03-29T14:24:59.169Z,9.31
2023-03-29T14:26:58.406Z,9.44
2023-03-29T14:29:01.417Z,9.24
2023-03-29T14:30:58.252Z,9.20
2023-03-29T14:32:57.119Z,9.19
2023-03-29T14:34:53.922Z,9.17
2023-03-29T14:36:54.498Z,9.11
2023-03-29T14:38:59.783Z,9.02
2023-03-29T14:40:57.752Z,9.08
2023-03-29T14:42:54.806Z,9.07
2023-03-29T14:44:54.812Z,9.12
2023-03-29T14:46:53.299Z,9.12
2023-03-29T14:48:54.098Z,9.20
2023-03-29T14:50:51.902Z,9.20
2023-03-29T14:52:52.612Z,9.07
2023-03-29T14:54:57.870Z,9.11
2023-03-29T14:56:57.850Z,9.09
2023-03-29T14:58:58.882Z,9.09
2023-03-29T15:00:57.977Z,9.26
2023-03-29T15:03:00.459Z,9.28
2023-03-29T15:05:06.084Z,9.32
2023-03-29T15:07:02.266Z,9.30
2023-03-29T15:09:05.135Z,9.31
2023-03-29T15:11:08.658Z,9.28
2023-03-29T15:13:10.620Z,9.23
2023-03-29T15:15:10.575Z,9.36
2023-03-29T15:17:12.004Z,9.41
2023-03-29T15:19:07.678Z,9.36
2023-03-29T15:21:04.024Z,9.29
2023-03-29T15:23:02.665Z,9.18
2023-03-29T15:25:01.953Z,9.18
2023-03-29T15:27:06.540Z,9.12
2023-03-29T15:29:09.043Z,9.16
2023-03-29T15:31:12.912Z,9.12
2023-03-29T15:33:16.785Z,9.11
2023-03-29T15:35:25.937Z,9.06
2023-03-29T15:37:21.726Z,9.06
2023-03-29T15:39:19.767Z,9.20
2023-03-29T15:41:16.209Z,9.33
2023-03-29T15:43:14.434Z,9.44
2023-03-29T15:45:17.154Z,9.38
2023-03-29T15:47:13.305Z,9.42
2023-03-29T15:49:08.821Z,9.42
2023-03-29T15:51:06.812Z,9.37
2023-03-29T15:53:14.167Z,9.41
2023-03-29T15:55:14.910Z,9.39
2023-03-29T15:57:15.667Z,9.47
2023-03-29T15:59:15.470Z,9.41
2023-03-29T16:01:19.180Z,9.43
2023-03-29T16:03:18.114Z,9.53
2023-03-29T16:05:13.565Z,9.54
2023-03-29T16:07:13.660Z,9.49
2023-03-29T16:09:12.054Z,9.46
2023-03-29T16:11:08.217Z,9.50
2023-03-29T16:13:03.397Z,9.47
2023-03-29T16:15:02.211Z,9.48
2023-03-29T16:17:01.173Z,9.53
2023-03-29T16:18:56.906Z,9.50
2023-03-29T16:20:54.117Z,9.38
2023-03-29T16:23:05.744Z,9.31
2023-03-29T16:25:14.908Z,9.47
2023-03-29T16:27:10.444Z,9.40
2023-03-29T16:29:05.572Z,9.37
2023-03-29T16:31:03.602Z,9.49
2023-03-29T16:33:01.434Z,9.38
2023-03-29T16:34:59.407Z,9.41
2023-03-29T16:36:56.296Z,9.34
2023-03-29T16:38:51.751Z,9.30
2023-03-29T16:40:46.869Z,9.30
2023-03-29T16:42:42.409Z,9.25
2023-03-29T16:44:37.492Z,9.25
2023-03-29T16:46:39.648Z,9.28
2023-03-29T16:48:35.645Z,9.25
2023-03-29T16:50:32.617Z,9.36
2023-03-29T16:52:33.190Z,9.37
2023-03-29T16:54:31.911Z,9.34
2023-03-29T16:56:28.491Z,9.34
2023-03-29T16:58:24.628Z,9.26
2023-03-29T17:00:22.355Z,9.34
2023-03-29T17:02:22.201Z,9.36
2023-03-29T17:04:19.507Z,9.34
2023-03-29T17:06:16.532Z,9.22
2023-03-29T17:08:13.151Z,9.27
2023-03-29T17:10:11.853Z,9.30
2023-03-29T17:12:07.944Z,9.39
2023-03-29T17:14:04.672Z,9.46
2023-03-29T17:16:02.150Z,9.42
2023-03-29T17:18:06.590Z,9.33
2023-03-29T17:20:02.338Z,9.36
2023-03-29T17:21:59.487Z,9.31
2023-03-29T17:23:55.334Z,9.39
2023-03-29T17:25:51.723Z,9.39
2023-03-29T17:27:48.346Z,9.43
2023-03-29T17:29:46.385Z,9.35
2023-03-29T17:31:48.050Z,9.32
2023-03-29T17:33:52.445Z,9.26
2023-03-29T17:35:50.997Z,9.30
2023-03-29T17:37:51.299Z,9.33
2023-03-29T17:39:50.576Z,9.30
2023-03-29T17:41:50.254Z,9.30
2023-03-29T17:43:50.944Z,9.31
2023-03-29T17:45:48.502Z,9.26
2023-03-29T17:47:44.636Z,9.29
2023-03-29T17:49:44.121Z,9.30
2023-03-29T17:51:39.638Z,9.31
2023-03-29T17:53:35.802Z,9.30
2023-03-29T17:59:00.942Z,9.10
2023-03-29T18:01:13.011Z,9.15
2023-03-29T18:03:36.521Z,9.17
2023-03-29T18:05:34.628Z,9.04
2023-03-29T18:07:29.769Z,8.95
2023-03-29T18:09:25.310Z,9.01
2023-03-29T18:11:24.824Z,9.12
2023-03-29T18:13:25.555Z,9.17
2023-03-29T18:15:20.886Z,9.20
2023-03-29T18:17:17.322Z,9.17
2023-03-29T18:19:13.677Z,9.11
2023-03-29T18:21:12.671Z,9.17
2023-03-29T18:23:08.516Z,9.13
2023-03-29T18:25:05.955Z,9.15
2023-03-29T18:27:05.381Z,9.11
2023-03-29T18:29:02.300Z,9.14
2023-03-29T18:30:57.640Z,9.19
2023-03-29T18:32:53.501Z,9.15
2023-03-29T18:34:49.252Z,9.14
2023-03-29T18:36:48.273Z,9.08
2023-03-29T18:38:44.612Z,9.06
2023-03-29T18:40:41.375Z,9.16
2023-03-29T18:42:37.299Z,9.18
2023-03-29T18:44:33.316Z,9.24
2023-03-29T18:46:31.272Z,9.20
2023-03-29T18:48:27.597Z,9.21
2023-03-29T18:50:23.318Z,9.16
2023-03-29T18:52:21.460Z,9.12
2023-03-29T18:54:16.612Z,9.16
2023-03-29T18:56:12.596Z,9.20
2023-03-29T18:58:07.929Z,9.13
2023-03-29T19:00:10.705Z,9.15
2023-03-29T19:02:07.114Z,9.13
2023-03-29T19:04:03.234Z,9.07
2023-03-29T19:06:03.310Z,9.01
2023-03-29T19:08:44.340Z,9.00
2023-03-29T19:10:49.245Z,9.05
2023-03-29T19:13:04.428Z,9.04
2023-03-29T19:15:25.781Z,9.03
2023-03-29T19:17:21.248Z,9.00
2023-03-29T19:19:18.648Z,8.98
2023-03-29T19:21:16.072Z,8.94
2023-03-29T19:23:11.337Z,8.92
2023-03-29T19:25:10.854Z,8.93
2023-03-29T19:27:12.007Z,8.95
2023-03-29T19:29:08.741Z,8.88
2023-03-29T19:31:07.279Z,8.95
2023-03-29T19:33:04.664Z,8.97
2023-03-29T19:35:45.439Z,8.98
2023-03-29T19:38:15.767Z,8.99
2023-03-29T19:40:49.981Z,8.91
2023-03-29T19:43:19.766Z,8.94
2023-03-29T19:45:15.422Z,8.92
2023-03-29T19:47:13.594Z,8.91
2023-03-29T19:49:09.864Z,8.92
2023-03-29T19:51:06.878Z,8.98
2023-03-29T19:53:02.256Z,8.99
2023-03-29T19:54:58.725Z,8.97
2023-03-29T19:56:57.852Z,8.91
2023-03-29T19:58:53.964Z,8.85
2023-03-29T20:00:55.951Z,8.80
2023-03-29T20:02:52.967Z,8.79
2023-03-29T20:04:48.520Z,8.79
2023-03-29T20:06:44.159Z,8.81
2023-03-29T20:08:39.221Z,8.79
2023-03-29T20:10:42.696Z,8.82
2023-03-29T20:13:12.506Z,8.82
2023-03-29T20:15:16.191Z,8.80
2023-03-29T20:17:45.357Z,8.79
2023-03-29T20:20:38.523Z,8.76
2023-03-29T20:23:26.150Z,8.71
2023-03-29T20:34:44.866Z,8.74
2023-03-29T20:36:43.156Z,8.69
2023-03-29T20:38:43.544Z,8.63
2023-03-29T20:40:42.000Z,8.59
2023-03-29T20:42:46.999Z,8.60
2023-03-29T20:44:51.227Z,8.62
2023-03-29T20:46:55.268Z,8.58
2023-03-29T20:48:57.031Z,8.58
2023-03-29T20:50:56.525Z,8.59
2023-03-29T20:52:54.562Z,8.61
2023-03-29T20:54:52.329Z,8.63
2023-03-29T20:56:49.981Z,8.61
2023-03-29T20:58:46.168Z,8.60
2023-03-29T21:00:44.660Z,8.62
2023-03-29T21:02:39.996Z,8.59
2023-03-29T21:04:36.584Z,8.62
2023-03-29T21:06:33.832Z,8.64
2023-03-29T21:08:31.643Z,8.66
2023-03-29T21:10:28.533Z,8.63
2023-03-29T21:12:24.173Z,8.61
2023-03-29T21:14:21.268Z,8.59
2023-03-29T21:16:20.846Z,8.56
2023-03-29T21:18:16.761Z,8.54
2023-03-29T21:20:15.118Z,8.50
2023-03-29T21:22:14.197Z,8.53
2023-03-29T21:24:13.654Z,8.56
2023-03-29T21:26:10.261Z,8.56
2023-03-29T21:28:07.464Z,8.52
2023-03-29T21:30:05.580Z,8.47
2023-03-29T21:32:08.681Z,8.49
2023-03-29T21:34:06.035Z,8.54
2023-03-29T21:36:03.500Z,8.46
2023-03-29T21:38:00.004Z,8.45
2023-03-29T21:39:56.873Z,8.45
2023-03-29T21:41:54.645Z,8.46
2023-03-29T21:43:51.474Z,8.43
2023-03-29T21:45:54.400Z,8.45
2023-03-29T21:47:56.464Z,8.49
2023-03-29T21:50:03.449Z,8.47
2023-03-29T21:52:02.982Z,8.52
2023-03-29T21:53:59.921Z,8.56
2023-03-29T21:55:58.435Z,8.58
2023-03-29T21:57:54.429Z,8.55
2023-03-29T21:59:53.308Z,8.53
2023-03-29T22:01:50.389Z,8.50
2023-03-29T22:03:54.278Z,8.47
2023-03-29T22:06:03.093Z,8.39
2023-03-29T22:08:00.375Z,8.41
2023-03-29T22:09:58.894Z,8.39
2023-03-29T22:11:57.510Z,8.32
2023-03-29T22:13:58.499Z,8.30
2023-03-29T22:16:00.434Z,8.31
2023-03-29T22:17:59.758Z,8.27
2023-03-29T22:20:01.288Z,8.29
2023-03-29T22:22:01.987Z,8.31
2023-03-29T22:24:01.730Z,8.32
2023-03-29T22:26:00.941Z,8.32
2023-03-29T22:28:59.403Z,8.41
2023-03-29T22:52:35.220Z,8.65
2023-03-29T22:55:09.419Z,8.67
2023-03-29T22:57:14.474Z,8.64
2023-03-29T23:03:54.683Z,8.56
2023-03-29T23:06:44.112Z,8.54
2023-03-29T23:08:48.121Z,8.47
2023-03-29T23:10:43.624Z,8.47
2023-03-29T23:12:39.588Z,8.45
2023-03-29T23:14:37.817Z,8.44
2023-03-29T23:16:34.427Z,8.40
2023-03-29T23:18:35.063Z,8.40
2023-03-29T23:20:30.511Z,8.39
2023-03-29T23:22:26.586Z,8.32
2023-03-29T23:24:26.389Z,8.29
2023-03-29T23:26:24.637Z,8.31
2023-03-29T23:28:23.747Z,8.28
2023-03-29T23:30:20.869Z,8.23
2023-03-29T23:32:16.863Z,8.27
2023-03-29T23:34:13.596Z,8.28
2023-03-29T23:36:11.656Z,8.30
2023-03-29T23:38:12.186Z,8.32
2023-03-29T23:40:14.394Z,8.33
2023-03-29T23:42:11.608Z,8.31
2023-03-29T23:44:11.651Z,8.34
2023-03-29T23:46:11.061Z,8.36
2023-03-29T23:48:06.611Z,8.39
2023-03-29T23:50:03.024Z,8.36
2023-03-29T23:52:02.755Z,8.35
2023-03-29T23:54:03.030Z,8.36
2023-03-29T23:56:06.461Z,8.34
2023-03-29T23:58:02.555Z,8.38
